createdAt,value
2016-04-07T00:00:06.557Z,25.29
2016-04-07T00:01:06.558Z,25.29
2016-04-07T00:02:06.561Z,25.96
2016-04-07T00:03:06.564Z,25.19
2016-04-07T00:04:06.583Z,25.28
2016-04-07T00:05:06.569Z,25.09
2016-04-07T00:06:06.588Z,25.38
2016-04-07T00:07:06.591Z,25.09
2016-04-07T00:08:06.594Z,25.28
2016-04-07T00:09:06.611Z,25.28
2016-04-07T00:10:06.599Z,25.38
2016-04-07T00:11:06.633Z,25.29
2016-04-07T00:12:06.620Z,25.28
2016-04-07T00:13:06.622Z,25.29
2016-04-07T00:14:06.625Z,25.38
2016-04-07T00:15:06.643Z,25.19
2016-04-07T00:16:06.670Z,25.38
2016-04-07T00:17:06.717Z,25.38
2016-04-07T00:18:06.780Z,25.09
2016-04-07T00:19:06.811Z,24.99
2016-04-07T00:20:06.874Z,25.28
2016-04-07T00:21:06.905Z,25.28
2016-04-07T00:22:06.939Z,25.28
2016-04-07T00:23:06.957Z,25.38
2016-04-07T00:24:06.975Z,25.19
2016-04-07T00:25:06.979Z,25.09
2016-04-07T00:26:07.007Z,25.19
2016-04-07T00:27:07.015Z,25.19
2016-04-07T00:28:07.023Z,25.28
2016-04-07T00:29:07.033Z,25.28
2016-04-07T00:30:07.040Z,25.38
2016-04-07T00:31:07.063Z,25.38
2016-04-07T00:32:07.068Z,25.09
2016-04-07T00:33:07.087Z,25.38
2016-04-07T00:34:07.091Z,25.28
2016-04-07T00:35:07.096Z,25.19
2016-04-07T00:36:07.100Z,25.48
2016-04-07T00:37:07.104Z,24.99
2016-04-07T00:38:07.107Z,25.48
2016-04-07T00:39:07.111Z,25.48
2016-04-07T00:40:07.130Z,25.38
2016-04-07T00:41:07.150Z,25.48
2016-04-07T00:42:07.136Z,25.28
2016-04-07T00:43:07.140Z,25.38
2016-04-07T00:44:07.143Z,25.09
2016-04-07T00:45:07.161Z,25.28
2016-04-07T00:46:07.337Z,25.38
2016-04-07T00:47:07.167Z,25.09
2016-04-07T00:48:07.169Z,25.19
2016-04-07T00:49:07.172Z,25.38
2016-04-07T00:50:07.175Z,25.57
2016-04-07T00:51:07.193Z,24.99
2016-04-07T00:52:07.180Z,25.19
2016-04-07T00:53:07.198Z,25.48
2016-04-07T00:54:07.217Z,25.48
2016-04-07T00:55:07.204Z,25.09
2016-04-07T00:56:07.206Z,25.48
2016-04-07T00:57:07.225Z,25.28
2016-04-07T00:58:07.228Z,25.28
2016-04-07T00:59:07.246Z,25.09
2016-04-07T01:00:07.233Z,25.09
2016-04-07T01:01:07.252Z,24.99
2016-04-07T01:02:07.239Z,25.09
2016-04-07T01:03:07.257Z,24.8
2016-04-07T01:04:07.260Z,24.9
2016-04-07T01:05:07.278Z,25.09
2016-04-07T01:06:07.281Z,24.9
2016-04-07T01:07:07.283Z,24.8
2016-04-07T01:08:07.286Z,25.09
2016-04-07T01:09:07.289Z,24.8
2016-04-07T01:10:07.307Z,25.09
2016-04-07T01:11:07.310Z,25.57
2016-04-07T01:12:07.313Z,24.9
2016-04-07T01:13:07.315Z,24.9
2016-04-07T01:14:07.318Z,24.9
2016-04-07T01:15:07.321Z,24.8
2016-04-07T01:16:07.323Z,24.8
2016-04-07T01:17:07.325Z,25.19
2016-04-07T01:18:07.343Z,24.99
2016-04-07T01:19:07.346Z,24.9
2016-04-07T01:20:07.349Z,24.9
2016-04-07T01:21:07.368Z,24.61
2016-04-07T01:22:07.370Z,24.99
2016-04-07T01:23:07.373Z,24.61
2016-04-07T01:24:07.391Z,24.9
2016-04-07T01:25:07.378Z,24.99
2016-04-07T01:26:07.381Z,24.99
2016-04-07T01:27:07.400Z,24.9
2016-04-07T01:28:07.417Z,24.9
2016-04-07T01:29:07.405Z,24.9
2016-04-07T01:30:07.408Z,24.9
2016-04-07T01:31:07.425Z,25.19
2016-04-07T01:32:07.428Z,24.9
2016-04-07T01:33:07.431Z,24.71
2016-04-07T01:34:07.433Z,24.61
2016-04-07T01:35:07.436Z,24.9
2016-04-07T01:36:07.455Z,24.71
2016-04-07T01:37:07.458Z,24.51
2016-04-07T01:38:07.477Z,24.71
2016-04-07T01:39:07.479Z,24.51
2016-04-07T01:40:07.466Z,24.71
2016-04-07T01:41:07.468Z,24.61
2016-04-07T01:42:07.487Z,24.8
2016-04-07T01:43:07.490Z,24.41
2016-04-07T01:44:07.508Z,24.61
2016-04-07T01:45:07.495Z,24.61
2016-04-07T01:46:07.498Z,24.41
2016-04-07T01:47:07.500Z,24.8
2016-04-07T01:48:07.518Z,24.41
2016-04-07T01:49:07.521Z,24.61
2016-04-07T01:50:07.524Z,24.61
2016-04-07T01:51:07.526Z,24.41
2016-04-07T01:52:07.373Z,24.61
2016-04-07T01:53:07.548Z,24.61
2016-04-07T01:54:07.550Z,24.51
2016-04-07T01:55:07.553Z,24.61
2016-04-07T01:56:07.571Z,24.51
2016-04-07T01:57:07.558Z,24.22
2016-04-07T01:58:07.576Z,24.61
2016-04-07T01:59:07.578Z,24.61
2016-04-07T02:00:07.581Z,24.32
2016-04-07T02:01:07.584Z,24.41
2016-04-07T02:02:07.587Z,24.32
2016-04-07T02:03:07.605Z,24.51
2016-04-07T02:04:07.592Z,24.32
2016-04-07T02:05:07.611Z,24.22
2016-04-07T02:06:07.613Z,24.51
2016-04-07T02:07:07.616Z,24.22
2016-04-07T02:08:07.619Z,24.41
2016-04-07T02:09:07.622Z,24.51
2016-04-07T02:10:07.641Z,24.13
2016-04-07T02:11:07.643Z,24.32
2016-04-07T02:12:07.645Z,24.32
2016-04-07T02:13:07.649Z,23.93
2016-04-07T02:14:07.666Z,24.13
2016-04-07T02:15:07.669Z,24.41
2016-04-07T02:16:07.672Z,24.41
2016-04-07T02:17:07.674Z,24.41
2016-04-07T02:18:07.693Z,24.13
2016-04-07T02:19:07.696Z,24.32
2016-04-07T02:20:07.682Z,24.32
2016-04-07T02:21:07.701Z,24.32
2016-04-07T02:22:07.704Z,24.22
2016-04-07T02:23:07.706Z,24.13
2016-04-07T02:24:07.709Z,24.13
2016-04-07T02:25:07.728Z,24.03
2016-04-07T02:26:07.731Z,24.41
2016-04-07T02:27:07.733Z,24.41
2016-04-07T02:28:07.751Z,24.13
2016-04-07T02:29:07.754Z,24.13
2016-04-07T02:30:07.757Z,24.41
2016-04-07T02:31:07.759Z,23.93
2016-04-07T02:32:07.761Z,24.03
2016-04-07T02:33:07.764Z,24.41
2016-04-07T02:34:07.767Z,24.13
2016-04-07T02:35:07.770Z,24.03
2016-04-07T02:36:07.789Z,24.13
2016-04-07T02:37:07.791Z,24.13
2016-04-07T02:38:07.793Z,23.83
2016-04-07T02:39:07.796Z,24.41
2016-04-07T02:40:07.799Z,23.83
2016-04-07T02:41:07.816Z,23.93
2016-04-07T02:42:07.851Z,24.22
2016-04-07T02:43:07.822Z,23.93
2016-04-07T02:44:07.825Z,24.22
2016-04-07T02:45:07.827Z,24.22
2016-04-07T02:46:07.830Z,24.13
2016-04-07T02:47:07.849Z,24.13
2016-04-07T02:48:07.852Z,23.93
2016-04-07T02:49:07.854Z,24.03
2016-04-07T02:50:07.857Z,23.83
2016-04-07T02:51:07.860Z,24.13
2016-04-07T02:52:07.878Z,23.93
2016-04-07T02:53:07.881Z,24.03
2016-04-07T02:54:07.899Z,24.22
2016-04-07T02:55:07.887Z,24.13
2016-04-07T02:56:07.889Z,24.13
2016-04-07T02:57:07.907Z,24.14
2016-04-07T02:58:07.909Z,24.13
2016-04-07T02:59:07.912Z,24.03
2016-04-07T03:00:07.915Z,23.93
2016-04-07T03:01:07.918Z,24.03
2016-04-07T03:02:07.936Z,23.93
2016-04-07T03:03:07.939Z,24.22
2016-04-07T03:04:07.942Z,24.13
2016-04-07T03:05:07.945Z,24.03
2016-04-07T03:06:07.947Z,24.03
2016-04-07T03:07:07.966Z,23.93
2016-04-07T03:08:07.953Z,24.13
2016-04-07T03:09:07.971Z,23.74
2016-04-07T03:10:07.974Z,23.65
2016-04-07T03:11:07.992Z,24.23
2016-04-07T03:12:07.980Z,23.74
2016-04-07T03:13:07.996Z,23.93
2016-04-07T03:14:07.999Z,23.74
2016-04-07T03:15:08.002Z,23.25
2016-04-07T03:16:08.005Z,23.65
2016-04-07T03:17:08.023Z,23.74
2016-04-07T03:18:08.010Z,23.65
2016-04-07T03:19:08.028Z,23.45
2016-04-07T03:20:08.032Z,23.65
2016-04-07T03:21:08.034Z,23.55
2016-04-07T03:22:08.052Z,23.35
2016-04-07T03:23:08.054Z,23.16
2016-04-07T03:24:08.057Z,23.74
2016-04-07T03:25:08.076Z,23.55
2016-04-07T03:26:08.079Z,23.35
2016-04-07T03:27:08.081Z,23.35
2016-04-07T03:28:08.084Z,23.74
2016-04-07T03:29:08.087Z,23.55
2016-04-07T03:30:08.089Z,23.65
2016-04-07T03:31:08.092Z,23.65
2016-04-07T03:32:08.111Z,23.55
2016-04-07T03:33:08.114Z,23.45
2016-04-07T03:34:08.116Z,23.55
2016-04-07T03:35:08.134Z,23.25
2016-04-07T03:36:08.137Z,23.35
2016-04-07T03:37:08.140Z,23.25
2016-04-07T03:38:08.127Z,23.35
2016-04-07T03:39:08.145Z,23.25
2016-04-07T03:40:08.148Z,23.25
2016-04-07T03:41:08.150Z,23.65
2016-04-07T03:42:08.153Z,23.25
2016-04-07T03:43:08.155Z,23.65
2016-04-07T03:44:08.175Z,23.35
2016-04-07T03:45:08.177Z,23.25
2016-04-07T03:46:08.180Z,23.25
2016-04-07T03:47:08.199Z,23.74
2016-04-07T03:48:08.184Z,22.87
2016-04-07T03:49:08.187Z,23.35
2016-04-07T03:50:08.206Z,23.35
2016-04-07T03:51:08.209Z,23.35
2016-04-07T03:52:08.211Z,23.25
2016-04-07T03:53:08.230Z,23.25
2016-04-07T03:54:08.233Z,22.97
2016-04-07T03:55:08.235Z,23.25
2016-04-07T03:56:08.237Z,22.77
2016-04-07T03:57:08.240Z,23.25
2016-04-07T03:58:08.243Z,22.97
2016-04-07T03:59:08.261Z,23.16
2016-04-07T04:00:08.264Z,22.97
2016-04-07T04:01:08.267Z,22.87
2016-04-07T04:02:08.269Z,23.07
2016-04-07T04:03:08.272Z,23.16
2016-04-07T04:04:08.275Z,22.97
2016-04-07T04:05:08.293Z,23.07
2016-04-07T04:06:08.295Z,23.07
2016-04-07T04:07:08.298Z,23.25
2016-04-07T04:08:08.301Z,23.08
2016-04-07T04:09:08.367Z,23.16
2016-04-07T04:10:08.306Z,23.07
2016-04-07T04:11:08.325Z,22.97
2016-04-07T04:12:08.344Z,23.07
2016-04-07T04:13:08.330Z,23.07
2016-04-07T04:14:08.333Z,23.16
2016-04-07T04:15:08.352Z,23.07
2016-04-07T04:16:08.401Z,22.97
2016-04-07T04:17:08.357Z,22.97
2016-04-07T04:18:08.360Z,23.25
2016-04-07T04:19:08.363Z,23.16
2016-04-07T04:20:08.380Z,23.16
2016-04-07T04:21:08.383Z,23.25
2016-04-07T04:22:08.386Z,23.07
2016-04-07T04:23:08.388Z,23.25
2016-04-07T04:24:08.516Z,23.35
2016-04-07T04:25:08.394Z,23.35
2016-04-07T04:26:08.412Z,23.25
2016-04-07T04:27:07.665Z,23.16
2016-04-07T04:28:08.418Z,23.25
2016-04-07T04:29:08.421Z,23.25
2016-04-07T04:30:08.422Z,23.07
2016-04-07T04:31:08.441Z,22.87
2016-04-07T04:32:08.444Z,23.35
2016-04-07T04:33:08.447Z,23.16
2016-04-07T04:34:08.465Z,23.35
2016-04-07T04:35:08.452Z,23.25
2016-04-07T04:36:08.455Z,23.16
2016-04-07T04:37:08.472Z,23.07
2016-04-07T04:38:08.475Z,23.16
2016-04-07T04:39:08.494Z,23.16
2016-04-07T04:40:08.481Z,23.35
2016-04-07T04:41:08.500Z,23.25
2016-04-07T04:42:08.517Z,23.25
2016-04-07T04:43:08.535Z,23.25
2016-04-07T04:44:08.507Z,23.45
2016-04-07T04:45:08.525Z,23.35
2016-04-07T04:46:08.513Z,23.35
2016-04-07T04:47:08.530Z,23.25
2016-04-07T04:48:08.533Z,23.35
2016-04-07T04:49:08.536Z,23.35
2016-04-07T04:50:08.539Z,23.35
2016-04-07T04:51:08.557Z,23.45
2016-04-07T04:52:08.544Z,23.16
2016-04-07T04:53:08.563Z,23.25
2016-04-07T04:54:08.675Z,23.35
2016-04-07T04:55:08.568Z,23.35
2016-04-07T04:56:08.587Z,22.97
2016-04-07T04:57:08.590Z,23.35
2016-04-07T04:58:08.592Z,23.25
2016-04-07T04:59:08.595Z,22.77
2016-04-07T05:00:08.597Z,23.35
2016-04-07T05:01:08.600Z,23.25
2016-04-07T05:02:08.618Z,22.87
2016-04-07T05:03:08.621Z,22.98
2016-04-07T05:04:08.623Z,22.98
2016-04-07T05:05:08.626Z,23.08
2016-04-07T05:06:08.629Z,22.98
2016-04-07T05:07:08.632Z,22.87
2016-04-07T05:08:08.634Z,22.87
2016-04-07T05:09:08.778Z,22.98
2016-04-07T05:10:08.655Z,22.77
2016-04-07T05:11:08.658Z,22.98
2016-04-07T05:12:08.661Z,22.88
2016-04-07T05:13:08.679Z,22.97
2016-04-07T05:14:08.683Z,22.87
2016-04-07T05:15:08.685Z,22.98
2016-04-07T05:16:08.688Z,22.88
2016-04-07T05:17:08.690Z,23.07
2016-04-07T05:18:08.708Z,23.08
2016-04-07T05:19:08.539Z,22.88
2016-04-07T05:20:08.713Z,22.69
2016-04-07T05:21:08.716Z,23.08
2016-04-07T05:22:08.735Z,22.87
2016-04-07T05:23:08.721Z,22.87
2016-04-07T05:24:08.787Z,23.07
2016-04-07T05:25:08.742Z,22.98
2016-04-07T05:26:08.745Z,22.59
2016-04-07T05:27:08.748Z,23.08
2016-04-07T05:28:08.751Z,23.07
2016-04-07T05:29:08.769Z,22.98
2016-04-07T05:30:08.771Z,22.69
2016-04-07T05:31:08.774Z,22.88
2016-04-07T05:32:08.776Z,22.88
2016-04-07T05:33:08.795Z,22.59
2016-04-07T05:34:08.798Z,22.88
2016-04-07T05:35:08.801Z,22.88
2016-04-07T05:36:08.803Z,22.88
2016-04-07T05:37:08.806Z,22.59
2016-04-07T05:38:08.809Z,22.77
2016-04-07T05:39:08.921Z,22.88
2016-04-07T05:40:08.830Z,22.5
2016-04-07T05:41:08.848Z,22.69
2016-04-07T05:42:08.835Z,22.87
2016-04-07T05:43:08.838Z,22.58
2016-04-07T05:44:08.856Z,22.11
2016-04-07T05:45:08.859Z,22.11
2016-04-07T05:46:08.861Z,22.2
2016-04-07T05:47:08.880Z,22.78
2016-04-07T05:48:08.883Z,22.59
2016-04-07T05:49:08.886Z,22.98
2016-04-07T05:50:08.888Z,22.2
2016-04-07T05:51:08.891Z,22.3
2016-04-07T05:52:08.894Z,22.78
2016-04-07T05:53:08.912Z,22.2
2016-04-07T05:54:08.930Z,22.4
2016-04-07T05:55:08.918Z,22.2
2016-04-07T05:56:08.921Z,22.59
2016-04-07T05:57:08.938Z,22.11
2016-04-07T05:58:08.940Z,22.4
2016-04-07T05:59:08.943Z,22.3
2016-04-07T06:00:08.946Z,22.59
2016-04-07T06:01:08.964Z,22.4
2016-04-07T06:02:08.967Z,22.4
2016-04-07T06:03:08.970Z,22.11
2016-04-07T06:04:08.988Z,21.92
2016-04-07T06:05:08.990Z,22.12
2016-04-07T06:06:08.978Z,21.92
2016-04-07T06:07:08.995Z,22.02
2016-04-07T06:08:08.998Z,22.4
2016-04-07T06:09:09.131Z,22.11
2016-04-07T06:10:09.025Z,22.3
2016-04-07T06:11:09.028Z,22.89
2016-04-07T06:12:09.030Z,22.3
2016-04-07T06:13:09.033Z,22.11
2016-04-07T06:14:09.036Z,22.12
2016-04-07T06:15:09.054Z,22.02
2016-04-07T06:16:09.072Z,22.02
2016-04-07T06:17:09.060Z,21.92
2016-04-07T06:18:09.062Z,22.02
2016-04-07T06:19:09.080Z,22.02
2016-04-07T06:20:09.083Z,22.6
2016-04-07T06:21:09.086Z,22.02
2016-04-07T06:22:09.088Z,22.12
2016-04-07T06:23:09.107Z,21.73
2016-04-07T06:24:09.109Z,21.92
2016-04-07T06:25:09.112Z,22.02
2016-04-07T06:26:09.114Z,21.83
2016-04-07T06:27:09.132Z,21.83
2016-04-07T06:28:09.135Z,21.92
2016-04-07T06:29:09.138Z,21.92
2016-04-07T06:30:09.156Z,21.83
2016-04-07T06:31:09.159Z,21.83
2016-04-07T06:32:09.162Z,21.64
2016-04-07T06:33:09.180Z,22.02
2016-04-07T06:34:09.183Z,22.31
2016-04-07T06:35:09.186Z,21.64
2016-04-07T06:36:09.204Z,21.44
2016-04-07T06:37:09.206Z,21.06
2016-04-07T06:38:09.209Z,21.55
2016-04-07T06:39:09.211Z,21.06
2016-04-07T06:40:09.215Z,21.65
2016-04-07T06:41:09.233Z,21.45
2016-04-07T06:42:09.236Z,21.65
2016-04-07T06:43:09.255Z,20.68
2016-04-07T06:44:09.258Z,20.97
2016-04-07T06:45:09.275Z,21.26
2016-04-07T06:46:09.277Z,21.26
2016-04-07T06:47:09.280Z,21.45
2016-04-07T06:48:09.283Z,21.25
2016-04-07T06:49:09.302Z,20.97
2016-04-07T06:50:09.305Z,20.97
2016-04-07T06:51:09.322Z,20.97
2016-04-07T06:52:09.325Z,21.07
2016-04-07T06:53:09.327Z,21.17
2016-04-07T06:54:09.330Z,21.65
2016-04-07T06:55:09.348Z,21.65
2016-04-07T06:56:09.351Z,21.83
2016-04-07T06:57:09.354Z,22.13
2016-04-07T06:58:09.373Z,22.13
2016-04-07T06:59:09.391Z,21.75
2016-04-07T07:00:09.393Z,21.84
2016-04-07T07:01:09.396Z,21.84
2016-04-07T07:02:09.414Z,21.83
2016-04-07T07:03:09.417Z,21.92
2016-04-07T07:04:09.420Z,21.73
2016-04-07T07:05:09.423Z,21.92
2016-04-07T07:06:09.442Z,22.22
2016-04-07T07:07:09.444Z,22.02
2016-04-07T07:08:09.447Z,22.02
2016-04-07T07:09:09.465Z,22.22
2016-04-07T07:10:09.452Z,22.12
2016-04-07T07:11:09.470Z,22.03
2016-04-07T07:12:09.472Z,21.92
2016-04-07T07:13:09.475Z,22.61
2016-04-07T07:14:09.494Z,22.22
2016-04-07T07:15:09.497Z,22.02
2016-04-07T07:16:09.515Z,21.83
2016-04-07T07:17:09.549Z,21.83
2016-04-07T07:18:09.520Z,22.03
2016-04-07T07:19:09.522Z,22.31
2016-04-07T07:20:09.557Z,21.92
2016-04-07T07:21:09.528Z,22.31
2016-04-07T07:22:09.546Z,21.92
2016-04-07T07:23:09.549Z,22.31
2016-04-07T07:24:09.551Z,21.83
2016-04-07T07:25:09.570Z,22.22
2016-04-07T07:26:09.573Z,22.31
2016-04-07T07:27:09.576Z,22.03
2016-04-07T07:28:09.594Z,22.02
2016-04-07T07:29:09.596Z,22.52
2016-04-07T07:30:09.646Z,22.6
2016-04-07T07:31:09.601Z,22.6
2016-04-07T07:32:09.558Z,22.31
2016-04-07T07:33:09.613Z,22.12
2016-04-07T07:34:10.178Z,22.22
2016-04-07T07:35:09.618Z,22.12
2016-04-07T07:36:09.637Z,22.03
2016-04-07T07:37:09.640Z,22.13
2016-04-07T07:38:09.658Z,21.65
2016-04-07T07:39:09.660Z,21.75
2016-04-07T07:40:09.653Z,21.66
2016-04-07T07:41:09.655Z,21.37
2016-04-07T07:42:09.673Z,21.37
2016-04-07T07:43:09.676Z,21.47
2016-04-07T07:44:09.678Z,21.66
2016-04-07T07:45:09.697Z,21.27
2016-04-07T07:46:09.716Z,20.7
2016-04-07T07:47:09.703Z,20.89
2016-04-07T07:48:09.706Z,20.8
2016-04-07T07:49:09.724Z,20.8
2016-04-07T07:50:09.742Z,20.61
2016-04-07T07:51:09.729Z,20.7
2016-04-07T07:52:09.747Z,20.7
2016-04-07T07:53:09.749Z,20.52
2016-04-07T07:54:09.752Z,20.61
2016-04-07T07:55:09.755Z,20.23
2016-04-07T07:56:09.757Z,20.62
2016-04-07T07:57:09.776Z,20.32
2016-04-07T07:58:09.857Z,20.32
2016-04-07T07:59:09.797Z,20.32
2016-04-07T08:00:10.066Z,20.03
2016-04-07T08:01:09.802Z,20.32
2016-04-07T08:02:09.805Z,20.23
2016-04-07T08:03:09.808Z,20.13
2016-04-07T08:04:09.810Z,19.94
2016-04-07T08:05:09.829Z,20.03
2016-04-07T08:06:10.019Z,20.03
2016-04-07T08:07:09.850Z,19.84
2016-04-07T08:08:09.837Z,19.84
2016-04-07T08:09:09.856Z,19.45
2016-04-07T08:10:09.859Z,19.74
2016-04-07T08:11:09.876Z,20.03
2016-04-07T08:12:09.864Z,19.94
2016-04-07T08:13:09.881Z,20.13
2016-04-07T08:14:09.884Z,20.03
2016-04-07T08:15:09.919Z,19.94
2016-04-07T08:16:09.906Z,20.03
2016-04-07T08:17:09.909Z,19.84
2016-04-07T08:18:09.927Z,19.84
2016-04-07T08:19:09.930Z,19.74
2016-04-07T08:20:09.932Z,19.65
2016-04-07T08:21:09.935Z,19.84
2016-04-07T08:22:09.938Z,19.74
2016-04-07T08:23:09.955Z,19.35
2016-04-07T08:24:09.958Z,19.65
2016-04-07T08:25:09.960Z,19.45
2016-04-07T08:26:09.979Z,19.45
2016-04-07T08:27:09.982Z,19.74
2016-04-07T08:28:09.985Z,19.45
2016-04-07T08:29:09.988Z,19.55
2016-04-07T08:30:10.006Z,19.84
2016-04-07T08:31:10.024Z,19.65
2016-04-07T08:32:10.027Z,19.94
2016-04-07T08:33:10.029Z,19.45
2016-04-07T08:34:10.032Z,18.41
2016-04-07T08:35:10.050Z,18.03
2016-04-07T08:36:10.037Z,15.71
2016-04-07T08:37:10.058Z,14.39
2016-04-07T08:38:10.060Z,16.72
2016-04-07T08:39:10.078Z,16.69
2016-04-07T08:40:10.111Z,16.39
2016-04-07T08:41:10.099Z,17.85
2016-04-07T08:42:10.101Z,18.99
2016-04-07T08:43:10.119Z,19.07
2016-04-07T08:44:10.107Z,19.27
2016-04-07T08:45:10.125Z,19.65
2016-04-07T08:46:10.113Z,19.35
2016-04-07T08:47:10.130Z,20.03
2016-04-07T08:48:10.133Z,19.84
2016-04-07T08:49:10.135Z,19.55
2016-04-07T08:50:10.154Z,20.03
2016-04-07T08:51:10.156Z,19.94
2016-04-07T08:52:10.159Z,19.74
2016-04-07T08:53:10.178Z,19.45
2016-04-07T08:54:10.181Z,20.23
2016-04-07T08:55:10.214Z,19.84
2016-04-07T08:56:10.201Z,20.03
2016-04-07T08:57:10.204Z,19.84
2016-04-07T08:58:10.222Z,19.45
2016-04-07T08:59:10.225Z,19.55
2016-04-07T09:00:10.228Z,19.45
2016-04-07T09:01:10.231Z,19.84
2016-04-07T09:02:10.234Z,19.65
2016-04-07T09:03:10.252Z,19.94
2016-04-07T09:04:10.255Z,19.94
2016-04-07T09:05:10.257Z,19.74
2016-04-07T09:06:10.260Z,19.84
2016-04-07T09:07:12.418Z,19.65
2016-04-07T09:08:10.140Z,19.84
2016-04-07T09:09:10.283Z,20.42
2016-04-07T09:10:10.302Z,19.84
2016-04-07T09:11:10.335Z,20.13
2016-04-07T09:12:10.308Z,19.74
2016-04-07T09:13:10.310Z,19.35
2016-04-07T09:14:10.328Z,19.84
2016-04-07T09:15:10.330Z,19.84
2016-04-07T09:16:10.333Z,19.45
2016-04-07T09:17:10.352Z,19.55
2016-04-07T09:18:10.338Z,19.84
2016-04-07T09:19:10.373Z,19.65
2016-04-07T09:20:10.375Z,19.65
2016-04-07T09:21:10.379Z,19.45
2016-04-07T09:22:10.405Z,19.55
2016-04-07T09:23:10.459Z,19.74
2016-04-07T09:24:10.498Z,19.94
2016-04-07T09:25:10.522Z,18.77
2016-04-07T09:26:10.576Z,19.17
2016-04-07T09:27:10.616Z,19.07
2016-04-07T09:28:10.633Z,19.07
2016-04-07T09:29:10.648Z,19.07
2016-04-07T09:30:10.664Z,19.17
2016-04-07T09:31:10.696Z,19.17
2016-04-07T09:32:10.706Z,19.45
2016-04-07T09:33:10.728Z,18.98
2016-04-07T09:34:10.735Z,19.17
2016-04-07T09:35:10.742Z,19.07
2016-04-07T09:36:10.750Z,19.17
2016-04-07T09:37:10.755Z,19.26
2016-04-07T09:38:10.776Z,19.07
2016-04-07T09:39:10.781Z,19.55
2016-04-07T09:40:10.801Z,19.07
2016-04-07T09:41:10.790Z,18.87
2016-04-07T09:42:10.809Z,19.45
2016-04-07T09:43:10.812Z,20.03
2016-04-07T09:44:10.879Z,19.84
2016-04-07T09:45:10.835Z,19.74
2016-04-07T09:46:10.854Z,19.74
2016-04-07T09:47:10.841Z,18.98
2016-04-07T09:48:10.860Z,19.07
2016-04-07T09:49:10.863Z,19.26
2016-04-07T09:50:10.881Z,19.46
2016-04-07T09:51:10.868Z,19.66
2016-04-07T09:52:10.886Z,18.98
2016-04-07T09:53:10.904Z,19.75
2016-04-07T09:54:10.907Z,18.97
2016-04-07T09:55:11.004Z,19.07
2016-04-07T09:56:10.913Z,19.17
2016-04-07T09:57:10.915Z,19.75
2016-04-07T09:58:10.934Z,19.94
2016-04-07T09:59:10.937Z,19.74
2016-04-07T10:00:10.954Z,19.45
2016-04-07T10:01:10.957Z,19.55
2016-04-07T10:02:10.975Z,19.45
2016-04-07T10:03:10.978Z,19.45
2016-04-07T10:04:10.965Z,19.74
2016-04-07T10:05:10.968Z,19.74
2016-04-07T10:06:10.987Z,19.74
2016-04-07T10:07:10.990Z,19.84
2016-04-07T10:08:11.475Z,19.74
2016-04-07T10:09:11.556Z,19.65
2016-04-07T10:10:11.028Z,19.94
2016-04-07T10:11:11.031Z,19.94
2016-04-07T10:12:11.033Z,19.94
2016-04-07T10:13:11.052Z,19.65
2016-04-07T10:14:11.039Z,19.65
2016-04-07T10:15:11.041Z,19.74
2016-04-07T10:16:11.061Z,19.84
2016-04-07T10:17:11.063Z,20.13
2016-04-07T10:18:11.097Z,19.35
2016-04-07T10:19:11.084Z,19.45
2016-04-07T10:20:11.086Z,20.03
2016-04-07T10:21:11.105Z,20.13
2016-04-07T10:22:11.091Z,19.94
2016-04-07T10:23:11.111Z,19.35
2016-04-07T10:24:11.113Z,20.13
2016-04-07T10:25:11.194Z,19.74
2016-04-07T10:26:11.150Z,19.74
2016-04-07T10:27:11.137Z,20.13
2016-04-07T10:28:11.155Z,19.94
2016-04-07T10:29:11.142Z,20.13
2016-04-07T10:30:11.160Z,19.84
2016-04-07T10:31:11.162Z,19.74
2016-04-07T10:32:11.165Z,20.13
2016-04-07T10:33:11.199Z,19.84
2016-04-07T10:34:11.202Z,19.84
2016-04-07T10:35:11.065Z,19.94
2016-04-07T10:36:11.192Z,19.74
2016-04-07T10:37:11.210Z,19.84
2016-04-07T10:38:11.212Z,19.65
2016-04-07T10:39:11.231Z,19.84
2016-04-07T10:40:11.249Z,19.84
2016-04-07T10:41:11.236Z,19.74
2016-04-07T10:42:11.255Z,19.35
2016-04-07T10:43:11.273Z,19.84
2016-04-07T10:44:11.261Z,19.74
2016-04-07T10:45:11.279Z,19.66
2016-04-07T10:46:11.281Z,19.85
2016-04-07T10:47:11.269Z,19.75
2016-04-07T10:48:11.303Z,19.75
2016-04-07T10:49:11.305Z,19.66
2016-04-07T10:50:11.308Z,19.85
2016-04-07T10:51:11.327Z,20.04
2016-04-07T10:52:11.314Z,19.66
2016-04-07T10:53:11.316Z,19.56
2016-04-07T10:54:11.335Z,20.04
2016-04-07T10:55:11.337Z,19.65
2016-04-07T10:56:11.183Z,19.46
2016-04-07T10:57:11.358Z,19.75
2016-04-07T10:58:11.360Z,19.46
2016-04-07T10:59:11.363Z,19.95
2016-04-07T11:00:11.381Z,19.75
2016-04-07T11:01:11.384Z,20.04
2016-04-07T11:02:11.387Z,20.04
2016-04-07T11:03:11.390Z,19.85
2016-04-07T11:04:11.393Z,19.75
2016-04-07T11:05:11.410Z,19.75
2016-04-07T11:06:11.413Z,19.35
2016-04-07T11:07:11.415Z,19.74
2016-04-07T11:08:11.434Z,19.65
2016-04-07T11:09:11.436Z,20.03
2016-04-07T11:10:11.595Z,19.94
2016-04-07T11:11:11.458Z,19.74
2016-04-07T11:12:11.461Z,19.84
2016-04-07T11:13:11.464Z,19.94
2016-04-07T11:14:11.482Z,19.84
2016-04-07T11:15:11.484Z,20.13
2016-04-07T11:16:11.503Z,19.94
2016-04-07T11:17:11.489Z,19.94
2016-04-07T11:18:11.508Z,19.94
2016-04-07T11:19:11.511Z,20.42
2016-04-07T11:20:11.530Z,20.23
2016-04-07T11:21:11.533Z,20.42
2016-04-07T11:22:11.535Z,20.52
2016-04-07T11:23:11.538Z,19.94
2016-04-07T11:24:11.540Z,20.03
2016-04-07T11:25:11.558Z,20.23
2016-04-07T11:26:11.560Z,20.23
2016-04-07T11:27:11.579Z,19.94
2016-04-07T11:28:11.582Z,20.23
2016-04-07T11:29:11.585Z,20.03
2016-04-07T11:30:11.603Z,19.73
2016-04-07T11:31:11.621Z,19.45
2016-04-07T11:32:11.608Z,19.73
2016-04-07T11:33:11.627Z,19.64
2016-04-07T11:34:11.613Z,19.54
2016-04-07T11:35:11.616Z,19.73
2016-04-07T11:36:11.635Z,20.03
2016-04-07T11:37:11.637Z,19.83
2016-04-07T11:38:11.640Z,19.73
2016-04-07T11:39:11.674Z,19.93
2016-04-07T11:40:11.677Z,19.83
2016-04-07T11:41:11.664Z,19.54
2016-04-07T11:42:11.729Z,19.73
2016-04-07T11:43:11.685Z,20.03
2016-04-07T11:44:11.687Z,19.64
2016-04-07T11:45:11.706Z,19.25
2016-04-07T11:46:11.709Z,19.45
2016-04-07T11:47:11.727Z,19.06
2016-04-07T11:48:11.714Z,19.64
2016-04-07T11:49:11.733Z,19.64
2016-04-07T11:50:11.735Z,19.73
2016-04-07T11:51:11.769Z,19.53
2016-04-07T11:52:11.756Z,19.06
2016-04-07T11:53:11.758Z,19.06
2016-04-07T11:54:11.777Z,19.64
2016-04-07T11:55:11.780Z,19.83
2016-04-07T11:56:11.783Z,19.64
2016-04-07T11:57:11.785Z,19.35
2016-04-07T11:58:11.803Z,19.17
2016-04-07T11:59:11.791Z,19.54
2016-04-07T12:00:11.808Z,19.93
2016-04-07T12:01:11.811Z,19.73
2016-04-07T12:02:11.830Z,19.64
2016-04-07T12:03:11.832Z,20.03
2016-04-07T12:04:11.851Z,19.06
2016-04-07T12:05:11.838Z,19.73
2016-04-07T12:06:11.856Z,19.73
2016-04-07T12:07:11.859Z,19.54
2016-04-07T12:08:11.862Z,19.45
2016-04-07T12:09:11.879Z,19.45
2016-04-07T12:10:11.898Z,20.03
2016-04-07T12:11:11.900Z,19.73
2016-04-07T12:12:11.903Z,19.25
2016-04-07T12:13:11.906Z,19.05
2016-04-07T12:14:11.909Z,18.96
2016-04-07T12:15:11.912Z,19.54
2016-04-07T12:16:11.930Z,19.64
2016-04-07T12:17:11.933Z,19.06
2016-04-07T12:18:11.935Z,19.64
2016-04-07T12:19:11.938Z,19.06
2016-04-07T12:20:11.956Z,19.06
2016-04-07T12:21:11.958Z,19.35
2016-04-07T12:22:11.977Z,19.06
2016-04-07T12:23:11.963Z,19.25
2016-04-07T12:24:11.966Z,19.25
2016-04-07T12:25:11.985Z,19.06
2016-04-07T12:26:11.988Z,19.35
2016-04-07T12:27:11.991Z,19.06
2016-04-07T12:28:12.008Z,19.06
2016-04-07T12:29:12.011Z,19.54
2016-04-07T12:30:12.030Z,19.25
2016-04-07T12:31:12.032Z,19.06
2016-04-07T12:32:12.035Z,19.06
2016-04-07T12:33:12.037Z,19.64
2016-04-07T12:34:12.040Z,19.06
2016-04-07T12:35:12.059Z,19.73
2016-04-07T12:36:12.062Z,19.93
2016-04-07T12:37:12.065Z,19.06
2016-04-07T12:38:12.067Z,19.26
2016-04-07T12:39:12.070Z,19.54
2016-04-07T12:40:12.103Z,19.73
2016-04-07T12:41:12.106Z,19.64
2016-04-07T12:42:12.109Z,19.54
2016-04-07T12:43:12.112Z,19.73
2016-04-07T12:44:12.115Z,20.03
2016-04-07T12:45:12.117Z,19.54
2016-04-07T12:46:12.136Z,19.64
2016-04-07T12:47:12.138Z,19.64
2016-04-07T12:48:12.141Z,19.15
2016-04-07T12:49:12.158Z,20.03
2016-04-07T12:50:12.161Z,19.73
2016-04-07T12:51:12.180Z,19.25
2016-04-07T12:52:12.182Z,19.54
2016-04-07T12:53:12.186Z,19.06
2016-04-07T12:55:12.206Z,19.73